METAR Data
IDs: Format: Raw Decoded Include TAF

Data at: 1116 UTC 18 Jan 2022

KDVL 181056Z AUTO 14006KT 5SM BR OVC003 M06/M06 A2935 RMK AO2 SLP531 T10561061 FZRANO
KDVL 180956Z AUTO 15014KT 5SM BR OVC003 M06/M06 A2937 RMK AO2 SLP538 T10561061 FZRANO
KDVL 180856Z AUTO 14010KT 4SM BR OVC003 M06/M07 A2942 RMK AO2 SLP553 60000 T10611072 56047 FZRANO
KDVL 180756Z AUTO 13010KT 5SM BR OVC003 M06/M07 A2947 RMK AO2 SNE11 SLP570 P0000 T10611072 FZRANO
KDVL 180709Z AUTO 12010KT 3SM -SN BR OVC003 M07/M07 A2949 RMK AO2 P0000 FZRANO
KDVL 180656Z AUTO 12011KT 2SM -SN BR OVC003 M06/M07 A2950 RMK AO2 SNB37 SLP579 P0000 T10611072 FZRANO
KDVL 180637Z AUTO 13012KT 2 1/2SM -SN BR OVC003 M07/M07 A2952 RMK AO2 SNB37 P0000 FZRANO
KDVL 180556Z AUTO 13009KT 1 1/2SM BR OVC003 M07/M08 A2956 RMK AO2 SLP601 60000 T10721078 11072 21083 58027 FZRANO
KDVL 180548Z AUTO 12011KT 1 3/4SM BR OVC003 M07/M08 A2957 RMK AO2 FZRANO
KDVL 180456Z AUTO 14012KT 5SM BR OVC003 M07/M08 A2959 RMK AO2 SNB0359E42 SLP611 P0000 T10721083 410111083 FZRANO
KDVL 180448Z AUTO 15013KT 6SM BR OVC003 M08/M08 A2960 RMK AO2 SNB0359E42 P0000 FZRANO
KDVL 180356Z AUTO 13011KT 10SM OVC005 M08/M09 A2964 RMK AO2 SLP627 T10831089 FZRANO
KDVL 180352Z AUTO 13011KT 10SM OVC005 M08/M09 A2965 RMK AO2 FZRANO
KDVL 180256Z AUTO 11011KT 9SM OVC007 M08/M09 A2969 RMK AO2 SNB15E52 SLP641 P0000 60000 T10781094 58017 FZRANO
KDVL 180228Z AUTO 12013KT 9SM -SN BKN007 OVC014 M08/M09 A2968 RMK AO2 SNB15 P0000 FZRANO
KDVL 180219Z AUTO 12012KT 10SM -SN SCT007 BKN014 OVC075 M08/M09 A2970 RMK AO2 SNB15 P0000 FZRANO
KDVL 180209Z AUTO 11012KT 10SM BKN014 OVC070 M08/M09 A2971 RMK AO2 FZRANO
KDVL 180156Z AUTO 12012KT 10SM SCT014 OVC070 M08/M09 A2971 RMK AO2 SLP651 T10781094 FZRANO
KDVL 180056Z AUTO 11010KT 10SM FEW070 OVC085 M08/M09 A2973 RMK AO2 SLP657 T10781094 FZRANO
KDVL 172356Z AUTO 10010KT 10SM OVC075 M07/M09 A2974 RMK AO2 SLP658 T10721094 11039 21072 57008 FZRANO
KDVL 172256Z AUTO 09008KT 10SM OVC075 M07/M09 A2975 RMK AO2 SLP662 T10671089 FZRANO
KDVL 172156Z AUTO 09012KT 10SM OVC050 M06/M08 A2975 RMK AO2 SLP662 T10611078 FZRANO
KDVL 172117Z AUTO 08011KT 10SM SCT007 OVC048 M05/M07 A2977 RMK AO2 FZRANO
KDVL 172056Z AUTO 09012KT 10SM OVC007 M05/M07 A2976 RMK AO2 SLP666 T10501067 55012 FZRANO
KDVL 171956Z AUTO 08012KT 10SM BKN007 OVC011 M04/M06 A2976 RMK AO2 SLP666 T10441061 FZRANO
KDVL 171905Z AUTO 06010KT 10SM OVC007 M04/M06 A2977 RMK AO2 FZRANO
KDVL 171856Z AUTO 06008KT 10SM OVC005 M04/M05 A2979 RMK AO2 SLP676 T10391050 FZRANO
KDVL 171808Z AUTO 06009KT 8SM OVC005 M04/M05 A2980 RMK AO2 FZRANO
KDVL 171756Z AUTO 08010KT 10SM OVC007 M04/M05 A2980 RMK AO2 SLP678 T10391050 11039 21056 53007 FZRANO
KDVL 171723Z AUTO 05007KT 10SM BKN009 OVC065 M04/M06 A2979 RMK AO2 FZRANO
KDVL 171714Z AUTO 05008KT 10SM SCT009 OVC065 M04/M06 A2979 RMK AO2 FZRANO
KDVL 171656Z AUTO 05008KT 10SM OVC065 M04/M06 A2979 RMK AO2 SLP675 T10391061 FZRANO
KDVL 171556Z AUTO 00000KT 10SM OVC070 M05/M06 A2978 RMK AO2 SLP671 T10501061 FZRANO
KDVL 171456Z AUTO 02003KT 10SM OVC080 M05/M07 A2978 RMK AO2 SLP671 T10501067 56003 FZRANO
KDVL 171356Z AUTO 01004KT 10SM OVC080 M06/M07 A2978 RMK AO2 SLP672 T10561067 FZRANO
KDVL 171256Z AUTO 24005KT 10SM OVC100 M05/M07 A2978 RMK AO2 SLP671 T10501067 FZRANO
KDVL 171156Z AUTO 25008KT 10SM OVC110 M05/M07 A2979 RMK AO2 SLP674 T10501067 11011 21056 55004 FZRANO
KDVL 171056Z AUTO 23005KT 10SM SCT070 BKN110 M04/M07 A2977 RMK AO2 SLP670 T10441067 FZRANO
KDVL 170956Z AUTO 25008KT 10SM OVC110 M04/M06 A2978 RMK AO2 SLP673 T10441061 FZRANO
KDVL 170856Z AUTO 23006KT 10SM CLR M05/M06 A2980 RMK AO2 SLP677 T10501061 56017 FZRANO
KDVL 170756Z AUTO 28010KT 10SM CLR M04/M06 A2981 RMK AO2 SLP682 T10441061 FZRANO
KDVL 170656Z AUTO 26012KT 10SM FEW036 M03/M05 A2982 RMK AO2 SLP685 T10331050 FZRANO
KDVL 170632Z AUTO 25011KT 10SM SCT021 BKN034 M02/M04 A2982 RMK AO2 FZRANO
KDVL 170556Z AUTO 27011KT 10SM OVC017 M01/M03 A2985 RMK AO2 SLP694 60000 T10111028 11011 21028 56014 FZRANO
KDVL 170456Z AUTO 25012KT 9SM OVC023 M01/M03 A2985 RMK AO2 SNE53 SLP696 P0000 T10111028 400001033 FZRANO
KDVL 170425Z AUTO 24010KT 9SM -SN SCT011 OVC023 M01/M03 A2985 RMK AO2 P0000 FZRANO
KDVL 170356Z AUTO 24009KT 5SM -SN BR OVC011 M02/M03 A2987 RMK AO2 SNB44 SLP701 P0000 T10171028 FZRANO
KDVL 170335Z AUTO 25011KT 10SM BKN013 OVC020 M02/M03 A2988 RMK AO2 FZRANO
KDVL 170256Z AUTO 22006KT 10SM FEW016 BKN024 OVC029 M02/M04 A2989 RMK AO2 SLP708 T10221039 56012 FZRANO
KDVL 170247Z AUTO 22005KT 10SM SCT016 BKN024 OVC030 M02/M04 A2990 RMK AO2 FZRANO
KDVL 170156Z AUTO 25005KT 10SM OVC030 M03/M04 A2990 RMK AO2 SLP713 T10281044 FZRANO
KDVL 170133Z AUTO 26005KT 10SM OVC030 M02/M04 A2991 RMK AO2 FZRANO
KDVL 170056Z AUTO 26007KT 10SM OVC026 M02/M04 A2991 RMK AO2 SLP715 T10221044 FZRANO
KDVL 162356Z AUTO 00000KT 10SM OVC024 M03/M04 A2993 RMK AO2 SLP720 T10281039 11022 21033 55001 FZRANO